Time;durP1;ratioP1;P1;durP2;ratioP2;P2;SDS_P1;SDS_P2;PMS_P1;PMS_P2;Temp;Humidity;BMP_temperature;BMP_pressure;BME280_temperature;BME280_humidity;BME280_pressure;Samples;Min_cycle;Max_cycle;Signal;HPM_P1;HPM_P2
2021/05/23 00:02:00;;;;;;;3.73;2.17;;;14.30;29.70;;;;;;10375452;28;20553;-69
2021/05/23 00:07:03;;;;;;;2.07;1.70;;;14.20;30.10;;;;;;10391000;28;20256;-69
2021/05/23 00:12:08;;;;;;;2.53;1.93;;;14.20;30.00;;;;;;10388006;28;20218;-70
2021/05/23 00:17:12;;;;;;;2.10;1.90;;;14.10;30.20;;;;;;10400474;28;20305;-69
2021/05/23 00:22:15;;;;;;;2.20;1.93;;;14.10;30.40;;;;;;10396259;28;20592;-70
2021/05/23 00:27:18;;;;;;;2.00;1.80;;;14.10;30.30;;;;;;10397630;28;20224;-69
2021/05/23 00:32:21;;;;;;;2.30;1.90;;;14.10;30.30;;;;;;10400005;28;21903;-70
2021/05/23 00:37:26;;;;;;;2.10;1.90;;;14.10;30.90;;;;;;10387408;28;20308;-69
2021/05/23 00:42:29;;;;;;;3.33;2.20;;;14.00;30.60;;;;;;10396236;28;20781;-71
2021/05/23 00:47:33;;;;;;;2.20;1.83;;;14.00;30.90;;;;;;10401501;28;20225;-70
2021/05/23 00:52:36;;;;;;;2.67;1.97;;;13.90;31.10;;;;;;10376775;28;20788;-70
2021/05/23 00:57:39;;;;;;;3.80;1.47;;;13.90;31.10;;;;;;10391390;28;20232;-70
2021/05/23 01:02:48;;;;;;;1.43;1.10;;;13.90;30.90;;;;;;10387232;28;20245;-69
2021/05/23 01:07:51;;;;;;;1.10;1.00;;;14.00;30.40;;;;;;10387691;28;20321;-69
2021/05/23 01:13:32;;;;;;;1.27;1.00;;;14.00;30.00;;;;;;10384106;28;20664;-69
2021/05/23 01:18:44;;;;;;;1.20;0.90;;;14.10;29.90;;;;;;10356805;28;20227;-69
2021/05/23 01:23:51;;;;;;;1.07;1.00;;;14.20;30.00;;;;;;10368135;28;20306;-69
2021/05/23 01:28:58;;;;;;;1.23;1.10;;;14.30;29.70;;;;;;10382425;28;20256;-69
2021/05/23 01:34:03;;;;;;;1.67;1.00;;;14.50;29.90;;;;;;10385587;28;20253;-72
2021/05/23 01:39:08;;;;;;;1.93;1.00;;;14.50;29.80;;;;;;10384351;28;20234;-69
2021/05/23 01:44:12;;;;;;;1.90;0.90;;;14.60;29.70;;;;;;10386422;28;20236;-70
2021/05/23 01:49:15;;;;;;;1.40;0.80;;;14.60;29.60;;;;;;10385477;28;20321;-70
2021/05/23 01:54:18;;;;;;;1.70;1.00;;;14.70;29.60;;;;;;10382665;28;20763;-69
2021/05/23 01:59:21;;;;;;;0.90;0.90;;;14.70;29.50;;;;;;10388523;28;20317;-69
2021/05/23 02:04:24;;;;;;;1.07;0.80;;;14.80;29.70;;;;;;10383927;28;20256;-70
2021/05/23 02:09:27;;;;;;;1.33;0.90;;;14.80;29.60;;;;;;10381923;28;20312;-70
2021/05/23 02:14:31;;;;;;;0.80;0.80;;;14.80;30.00;;;;;;10382050;28;20342;-70
2021/05/23 02:19:33;;;;;;;1.43;0.70;;;14.90;29.60;;;;;;10385519;28;20228;-69
2021/05/23 02:24:36;;;;;;;2.17;0.90;;;14.80;29.40;;;;;;10384243;28;20234;-69
2021/05/23 02:29:40;;;;;;;1.07;0.73;;;14.90;29.60;;;;;;10383181;28;20226;-70
2021/05/23 02:34:46;;;;;;;2.00;0.87;;;14.90;29.80;;;;;;10376184;28;20793;-70
2021/05/23 02:39:49;;;;;;;1.00;0.70;;;14.90;30.50;;;;;;10381415;28;20257;-69
2021/05/23 02:44:53;;;;;;;0.83;0.80;;;14.80;30.30;;;;;;10387951;28;20273;-70
2021/05/23 02:49:56;;;;;;;0.97;0.80;;;14.70;30.90;;;;;;10388595;28;20270;-69
2021/05/23 02:54:58;;;;;;;0.73;0.73;;;14.60;31.00;;;;;;10382406;28;20815;-71
2021/05/23 03:00:03;;;;;;;3.07;1.00;;;14.40;31.60;;;;;;10386567;28;20264;-70
2021/05/23 03:05:08;;;;;;;1.10;0.90;;;14.30;31.50;;;;;;10379360;28;20341;-70
2021/05/23 03:10:14;;;;;;;0.70;0.70;;;14.20;31.60;;;;;;10376618;28;20234;-69
2021/05/23 03:15:20;;;;;;;1.30;0.83;;;14.10;31.70;;;;;;10372629;28;20864;-69
2021/05/23 03:20:25;;;;;;;0.60;0.60;;;14.00;32.30;;;;;;10383823;28;20301;-71
2021/05/23 03:25:29;;;;;;;1.07;0.70;;;14.00;32.50;;;;;;10386515;28;20309;-69
2021/05/23 03:30:36;;;;;;;0.73;0.70;;;13.90;32.10;;;;;;10380780;28;20664;-69
2021/05/23 03:35:40;;;;;;;0.80;0.63;;;13.90;33.30;;;;;;10378750;28;20663;-71
2021/05/23 03:40:43;;;;;;;1.10;0.60;;;13.80;32.70;;;;;;10385698;28;20257;-70
2021/05/23 03:45:47;;;;;;;0.80;0.70;;;13.70;33.40;;;;;;10388008;28;20321;-69
2021/05/23 03:50:50;;;;;;;0.80;0.77;;;13.70;33.30;;;;;;10379011;28;20821;-69
2021/05/23 03:55:53;;;;;;;1.63;0.80;;;13.60;33.10;;;;;;10377004;28;20252;-70
2021/05/23 04:00:56;;;;;;;0.97;0.90;;;13.50;33.30;;;;;;10395886;28;20333;-70
2021/05/23 04:05:59;;;;;;;1.77;0.90;;;13.50;33.70;;;;;;10391489;28;20320;-70
2021/05/23 04:11:05;;;;;;;1.73;1.00;;;13.50;33.70;;;;;;10376778;28;21018;-70
2021/05/23 04:16:09;;;;;;;0.77;0.70;;;13.40;33.90;;;;;;10376679;28;20313;-70
2021/05/23 04:21:12;;;;;;;0.90;0.70;;;13.40;34.30;;;;;;10379945;28;20260;-69
2021/05/23 04:26:15;;;;;;;0.60;0.60;;;13.30;34.00;;;;;;10380324;28;20291;-70
2021/05/23 04:31:18;;;;;;;0.53;0.50;;;13.20;34.10;;;;;;10378081;28;20782;-70
2021/05/23 04:36:21;;;;;;;0.70;0.70;;;13.20;34.80;;;;;;10365243;28;20318;-70
2021/05/23 04:41:24;;;;;;;1.37;0.67;;;13.10;34.60;;;;;;10354037;28;20250;-70
2021/05/23 04:46:27;;;;;;;0.63;0.63;;;13.10;34.80;;;;;;10356900;28;20254;-70
2021/05/23 04:51:30;;;;;;;0.70;0.70;;;13.00;35.20;;;;;;10337175;28;20226;-70
2021/05/23 04:56:33;;;;;;;0.60;0.60;;;13.10;35.10;;;;;;10340577;28;20228;-70
2021/05/23 05:01:37;;;;;;;0.53;0.53;;;13.00;35.10;;;;;;10356139;28;20266;-70
2021/05/23 05:06:40;;;;;;;0.60;0.53;;;13.00;35.80;;;;;;10366576;28;20235;-70
2021/05/23 05:11:43;;;;;;;0.70;0.70;;;13.00;35.50;;;;;;10366311;28;20280;-70
2021/05/23 05:16:46;;;;;;;0.97;0.70;;;13.00;35.70;;;;;;10374037;28;20345;-70
2021/05/23 05:21:49;;;;;;;0.70;0.70;;;13.00;36.00;;;;;;10351020;28;20226;-70
2021/05/23 05:26:52;;;;;;;0.80;0.80;;;13.00;35.90;;;;;;10354710;28;20230;-70
2021/05/23 05:31:56;;;;;;;1.00;1.00;;;13.10;35.90;;;;;;10380824;28;20281;-70
2021/05/23 05:36:59;;;;;;;0.83;0.80;;;13.10;36.10;;;;;;10396345;28;20325;-70
2021/05/23 05:42:02;;;;;;;1.07;0.97;;;13.10;35.80;;;;;;10392797;28;20309;-70
2021/05/23 05:47:06;;;;;;;1.07;1.07;;;13.20;35.90;;;;;;10390428;28;20228;-70
2021/05/23 05:52:09;;;;;;;0.83;0.73;;;13.20;36.50;;;;;;10397064;28;20645;-70
2021/05/23 05:57:12;;;;;;;0.80;0.80;;;13.20;35.80;;;;;;10399396;28;20230;-70
2021/05/23 06:02:20;;;;;;;0.50;0.50;;;13.20;35.80;;;;;;10401500;28;20276;-70
2021/05/23 06:07:23;;;;;;;0.70;0.70;;;13.20;36.50;;;;;;10387681;28;20318;-70
2021/05/23 06:12:26;;;;;;;1.67;0.97;;;13.30;36.20;;;;;;10393093;28;20226;-70
2021/05/23 06:17:29;;;;;;;0.53;0.53;;;13.20;36.10;;;;;;10380266;28;20226;-70
2021/05/23 06:22:33;;;;;;;0.57;0.57;;;13.10;36.60;;;;;;10400398;28;20669;-70
2021/05/23 06:27:36;;;;;;;0.57;0.57;;;13.10;36.50;;;;;;10392725;28;20828;-70
2021/05/23 06:32:40;;;;;;;0.50;0.50;;;13.10;36.70;;;;;;10387231;28;20309;-70
2021/05/23 06:37:43;;;;;;;2.47;0.60;;;13.10;37.20;;;;;;10394747;28;20232;-70
2021/05/23 06:42:45;;;;;;;0.50;0.50;;;13.10;36.30;;;;;;10390809;28;20236;-70
2021/05/23 06:47:49;;;;;;;0.60;0.60;;;13.10;36.20;;;;;;10392238;28;20873;-70
2021/05/23 06:52:52;;;;;;;0.93;0.60;;;13.00;36.50;;;;;;10392414;28;20232;-70
2021/05/23 06:57:54;;;;;;;0.73;0.43;;;13.00;36.20;;;;;;10398475;28;20805;-70
2021/05/23 07:02:58;;;;;;;0.50;0.50;;;13.10;36.20;;;;;;10383147;28;20325;-70
2021/05/23 07:08:01;;;;;;;0.67;0.60;;;13.10;36.20;;;;;;10386458;28;20243;-70
2021/05/23 07:13:03;;;;;;;1.30;0.70;;;13.10;36.10;;;;;;10380576;28;20352;-69
2021/05/23 07:18:07;;;;;;;0.60;0.60;;;13.00;36.10;;;;;;10391588;28;20261;-70
2021/05/23 07:23:10;;;;;;;0.80;0.80;;;12.90;36.40;;;;;;10380378;28;20268;-69
2021/05/23 07:28:14;;;;;;;1.17;1.07;;;12.90;36.40;;;;;;10386187;28;20250;-69
2021/05/23 07:33:18;;;;;;;1.77;1.60;;;12.80;36.70;;;;;;10389298;28;20291;-69
2021/05/23 07:38:21;;;;;;;1.00;0.90;;;12.70;37.00;;;;;;10384450;28;21770;-69
2021/05/23 07:43:23;;;;;;;0.70;0.70;;;12.70;36.80;;;;;;10380645;28;20246;-70
2021/05/23 07:48:27;;;;;;;1.23;1.20;;;12.60;37.30;;;;;;10377538;28;20230;-69
2021/05/23 07:53:30;;;;;;;1.60;1.50;;;12.60;37.80;;;;;;10381382;28;20317;-70
2021/05/23 07:58:33;;;;;;;5.40;1.70;;;12.60;37.60;;;;;;10385410;28;20257;-69
2021/05/23 08:03:36;;;;;;;1.50;1.40;;;12.70;37.70;;;;;;10383913;28;20305;-70
2021/05/23 08:08:39;;;;;;;2.00;1.90;;;12.80;38.40;;;;;;10386968;28;20226;-69
2021/05/23 08:13:42;;;;;;;1.63;1.10;;;12.80;38.40;;;;;;10392100;28;20222;-70
2021/05/23 08:18:46;;;;;;;1.90;1.60;;;12.90;38.50;;;;;;10392454;28;20273;-70
2021/05/23 08:23:48;;;;;;;1.87;1.60;;;13.00;39.10;;;;;;10381795;28;20272;-71
2021/05/23 08:28:51;;;;;;;1.70;1.60;;;13.10;39.10;;;;;;10389211;28;20260;-70
2021/05/23 08:33:55;;;;;;;1.37;1.27;;;13.20;39.40;;;;;;10386358;28;20317;-70
2021/05/23 08:38:58;;;;;;;1.40;1.03;;;13.40;39.70;;;;;;10393180;28;20357;-70
2021/05/23 08:44:00;;;;;;;2.23;1.90;;;13.60;39.30;;;;;;10403873;28;20308;-70
2021/05/23 08:49:04;;;;;;;1.43;0.90;;;13.70;39.20;;;;;;10395264;28;20253;-71
2021/05/23 08:54:07;;;;;;;0.77;0.77;;;13.80;39.30;;;;;;10396266;28;20344;-71
2021/05/23 08:59:11;;;;;;;1.10;0.80;;;14.00;39.10;;;;;;10400461;28;20308;-70
2021/05/23 09:04:19;;;;;;;1.30;0.90;;;14.00;39.50;;;;;;10389248;28;20257;-71
2021/05/23 09:09:21;;;;;;;0.90;0.70;;;14.20;39.90;;;;;;10394056;28;20312;-71
2021/05/23 09:14:34;;;;;;;1.83;0.80;;;14.50;39.10;;;;;;10400783;28;20339;-71
2021/05/23 09:19:42;;;;;;;0.93;0.77;;;14.60;39.60;;;;;;10394803;28;20222;-70
2021/05/23 09:24:55;;;;;;;2.50;0.70;;;14.80;38.90;;;;;;10391722;28;20283;-70
2021/05/23 09:30:03;;;;;;;0.60;0.60;;;14.90;39.20;;;;;;10390175;28;20272;-70
2021/05/23 09:35:09;;;;;;;1.03;0.80;;;15.00;38.60;;;;;;10391645;28;20801;-70
2021/05/23 09:40:17;;;;;;;0.63;0.60;;;15.10;38.70;;;;;;10402478;28;20246;-70
2021/05/23 09:45:22;;;;;;;1.27;1.10;;;15.30;38.80;;;;;;10395265;28;20237;-70
2021/05/23 09:50:38;;;;;;;3.47;1.70;;;15.30;37.80;;;;;;10384233;28;20238;-70
2021/05/23 09:55:51;;;;;;;2.07;1.00;;;15.30;37.60;;;;;;10392769;28;20260;-71
2021/05/23 10:00:54;;;;;;;1.90;0.90;;;15.20;37.90;;;;;;10383644;28;20253;-70
2021/05/23 10:05:58;;;;;;;0.83;0.67;;;15.10;38.00;;;;;;10386811;28;20253;-70
2021/05/23 10:11:01;;;;;;;0.70;0.70;;;15.10;37.80;;;;;;10383924;28;20313;-72
2021/05/23 10:16:04;;;;;;;0.60;0.60;;;15.00;37.60;;;;;;10375473;28;20230;-70
2021/05/23 10:21:08;;;;;;;0.60;0.57;;;14.90;37.20;;;;;;10393657;28;20291;-71
2021/05/23 10:26:13;;;;;;;0.50;0.50;;;14.70;36.70;;;;;;10384361;28;20268;-70
2021/05/23 10:31:28;;;;;;;1.40;0.57;;;14.50;37.60;;;;;;10383654;28;20287;-70
2021/05/23 10:36:33;;;;;;;0.50;0.50;;;14.30;39.10;;;;;;10391041;28;20257;-71
2021/05/23 10:41:36;;;;;;;0.50;0.50;;;14.30;39.80;;;;;;10400640;28;20571;-73
2021/05/23 10:47:10;;;;;;;0.57;0.57;;;14.40;39.80;;;;;;10394837;28;20617;-70
2021/05/23 10:52:16;;;;;;;0.80;0.80;;;14.70;40.40;;;;;;10395392;28;20233;-70
2021/05/23 10:57:19;;;;;;;1.40;0.83;;;15.00;41.00;;;;;;10383409;28;20246;-70
2021/05/23 11:02:22;;;;;;;1.13;0.60;;;15.40;38.80;;;;;;10389093;28;20337;-71
2021/05/23 11:07:25;;;;;;;0.60;0.60;;;15.60;38.10;;;;;;10390285;28;20222;-71
2021/05/23 11:12:29;;;;;;;0.73;0.73;;;15.80;38.50;;;;;;10391199;28;20261;-71
2021/05/23 11:17:35;;;;;;;0.50;0.50;;;16.10;38.70;;;;;;10379396;28;20879;-70
2021/05/23 11:22:38;;;;;;;1.13;0.67;;;16.30;38.20;;;;;;10391638;28;20245;-71
2021/05/23 11:27:41;;;;;;;1.03;0.80;;;16.60;37.20;;;;;;10392880;28;20830;-71
2021/05/23 11:32:45;;;;;;;0.83;0.57;;;16.70;36.90;;;;;;10389803;28;20707;-71
2021/05/23 11:37:53;;;;;;;0.77;0.60;;;16.90;36.70;;;;;;10391184;28;20236;-71
2021/05/23 11:42:55;;;;;;;0.47;0.47;;;17.10;36.80;;;;;;10387794;28;20241;-71
2021/05/23 11:48:05;;;;;;;1.07;1.00;;;17.30;35.50;;;;;;10392289;28;20709;-71
2021/05/23 11:53:08;;;;;;;2.17;0.60;;;17.30;34.10;;;;;;10388810;28;20309;-72
2021/05/23 11:58:12;;;;;;;2.53;0.70;;;17.00;33.90;;;;;;10395442;28;20293;-72
2021/05/23 12:03:15;;;;;;;0.40;0.40;;;16.60;34.30;;;;;;10394925;28;20237;-72
2021/05/23 12:08:20;;;;;;;1.00;0.80;;;16.30;34.30;;;;;;10396011;28;20304;-71
2021/05/23 12:13:23;;;;;;;1.37;0.70;;;15.90;34.80;;;;;;10391889;28;20234;-71
2021/05/23 12:18:34;;;;;;;0.83;0.60;;;15.70;35.60;;;;;;10397331;28;20659;-71
2021/05/23 12:23:39;;;;;;;0.93;0.80;;;15.60;37.20;;;;;;10389995;28;20752;-71
2021/05/23 12:28:43;;;;;;;0.90;0.90;;;15.60;38.40;;;;;;10386727;28;20217;-71
2021/05/23 12:33:50;;;;;;;0.80;0.80;;;15.60;37.60;;;;;;10378587;28;20304;-71
2021/05/23 12:38:57;;;;;;;0.90;0.90;;;15.70;38.20;;;;;;10390985;28;20222;-71
2021/05/23 12:43:59;;;;;;;0.93;0.63;;;15.70;37.40;;;;;;10392721;28;20288;-71
2021/05/23 12:49:13;;;;;;;1.73;0.80;;;15.80;37.90;;;;;;10380700;28;20217;-71
2021/05/23 12:54:28;;;;;;;0.50;0.50;;;16.00;38.00;;;;;;10394413;28;20234;-71
2021/05/23 12:59:37;;;;;;;0.60;0.60;;;16.10;37.90;;;;;;10403562;28;20316;-73
2021/05/23 13:04:40;;;;;;;1.27;0.60;;;16.40;36.90;;;;;;10389469;28;20227;-72
2021/05/23 13:09:46;;;;;;;0.70;0.70;;;16.50;37.00;;;;;;10389218;28;20233;-71
2021/05/23 13:14:53;;;;;;;0.50;0.50;;;16.60;37.00;;;;;;10399443;28;20275;-70
2021/05/23 13:19:56;;;;;;;0.93;0.50;;;16.70;37.10;;;;;;10389803;28;20257;-71
2021/05/23 13:25:03;;;;;;;0.50;0.50;;;16.90;36.80;;;;;;10390039;28;20659;-72
2021/05/23 13:30:08;;;;;;;0.50;0.50;;;17.00;35.90;;;;;;10386980;28;20305;-71
2021/05/23 13:35:12;;;;;;;0.60;0.60;;;17.00;35.20;;;;;;10390139;28;20249;-71
2021/05/23 13:40:16;;;;;;;0.97;0.60;;;17.00;35.40;;;;;;10382459;28;20238;-71
2021/05/23 13:45:19;;;;;;;0.60;0.60;;;17.10;35.40;;;;;;10398689;28;20231;-72
2021/05/23 13:50:23;;;;;;;0.50;0.50;;;17.20;35.60;;;;;;10389122;28;20226;-71
2021/05/23 13:55:26;;;;;;;1.03;0.50;;;17.30;35.70;;;;;;10380898;28;20309;-71
2021/05/23 14:00:29;;;;;;;0.50;0.50;;;17.40;35.40;;;;;;10389118;28;21045;-72
2021/05/23 14:05:32;;;;;;;0.50;0.40;;;17.50;35.00;;;;;;10382953;28;20234;-71
2021/05/23 14:10:35;;;;;;;0.70;0.60;;;17.60;35.00;;;;;;10390963;28;20257;-71
2021/05/23 14:15:38;;;;;;;0.50;0.50;;;17.70;34.50;;;;;;10387529;28;20238;-70
2021/05/23 14:20:45;;;;;;;0.60;0.60;;;17.90;34.70;;;;;;10390450;28;20230;-71
2021/05/23 14:25:51;;;;;;;0.50;0.50;;;17.90;34.70;;;;;;10388965;28;20651;-71
2021/05/23 14:30:55;;;;;;;1.17;0.50;;;17.90;34.70;;;;;;10386151;28;20317;-71
2021/05/23 14:35:57;;;;;;;0.53;0.53;;;17.80;34.60;;;;;;10381012;28;20241;-71
2021/05/23 14:41:01;;;;;;;0.57;0.50;;;17.80;34.60;;;;;;10387725;28;20321;-71
2021/05/23 14:46:04;;;;;;;0.63;0.40;;;17.80;34.60;;;;;;10391389;28;20253;-71
2021/05/23 14:51:06;;;;;;;0.50;0.50;;;17.80;34.60;;;;;;10400433;28;20340;-71
2021/05/23 14:56:10;;;;;;;1.17;0.70;;;18.00;34.70;;;;;;10385523;28;20276;-71
2021/05/23 15:01:13;;;;;;;1.67;1.00;;;18.20;34.90;;;;;;10392322;28;20346;-71
2021/05/23 15:06:16;;;;;;;0.70;0.70;;;18.30;35.00;;;;;;10386392;28;20242;-70
2021/05/23 15:11:19;;;;;;;0.50;0.50;;;18.50;33.90;;;;;;10402344;28;20229;-70
2021/05/23 15:16:22;;;;;;;0.57;0.50;;;18.60;33.20;;;;;;10407924;28;20256;-71
2021/05/23 15:21:25;;;;;;;1.10;0.93;;;18.70;33.50;;;;;;10385606;28;20245;-69
2021/05/23 15:26:40;;;;;;;0.90;0.90;;;18.80;33.60;;;;;;10390710;28;20280;-69
2021/05/23 15:31:43;;;;;;;1.43;1.33;;;19.00;33.20;;;;;;10395684;28;20270;-69
2021/05/23 15:36:46;;;;;;;0.80;0.77;;;19.00;33.00;;;;;;10407674;28;20234;-69
2021/05/23 15:41:50;;;;;;;1.40;0.70;;;19.10;32.90;;;;;;10392936;28;20305;-69
2021/05/23 15:46:53;;;;;;;0.87;0.70;;;19.20;32.20;;;;;;10374438;28;20260;-69
2021/05/23 15:51:56;;;;;;;0.60;0.60;;;19.30;33.20;;;;;;10382220;28;20229;-69
2021/05/23 15:57:00;;;;;;;0.70;0.70;;;19.40;32.90;;;;;;10380235;28;20273;-69
2021/05/23 16:02:03;;;;;;;2.60;0.70;;;19.40;31.90;;;;;;10406983;28;20309;-69
2021/05/23 16:07:06;;;;;;;1.40;0.63;;;19.40;32.30;;;;;;10376277;28;20798;-69
2021/05/23 16:12:13;;;;;;;1.10;0.97;;;19.50;32.00;;;;;;10370119;28;20270;-69
2021/05/23 16:17:16;;;;;;;0.60;0.60;;;19.60;31.90;;;;;;10407201;28;20261;-70
2021/05/23 16:22:19;;;;;;;1.13;0.57;;;19.70;32.00;;;;;;10395872;28;20715;-69
2021/05/23 16:27:22;;;;;;;1.33;0.70;;;19.70;32.00;;;;;;10374923;28;20333;-69
2021/05/23 16:32:25;;;;;;;0.60;0.53;;;19.80;31.70;;;;;;10392088;28;20229;-69
2021/05/23 16:37:29;;;;;;;0.70;0.50;;;19.90;31.70;;;;;;10405913;28;20607;-69
2021/05/23 16:42:33;;;;;;;0.57;0.50;;;20.00;31.90;;;;;;10405853;28;20305;-70
2021/05/23 16:47:38;;;;;;;0.50;0.50;;;20.00;31.00;;;;;;10392615;28;20768;-69
2021/05/23 16:52:41;;;;;;;0.73;0.70;;;20.10;31.20;;;;;;10392557;28;20332;-69
2021/05/23 16:57:45;;;;;;;0.50;0.40;;;20.20;30.90;;;;;;10395079;28;20226;-69
2021/05/23 17:02:48;;;;;;;4.33;0.77;;;20.20;31.00;;;;;;10372623;28;20257;-69
2021/05/23 17:07:51;;;;;;;0.50;0.50;;;20.30;31.20;;;;;;10399787;28;20288;-70
2021/05/23 17:13:11;;;;;;;0.90;0.60;;;20.40;31.30;;;;;;10372565;28;20590;-69
2021/05/23 17:18:14;;;;;;;0.60;0.57;;;20.40;30.80;;;;;;10412315;28;20257;-70
2021/05/23 17:23:18;;;;;;;0.60;0.60;;;20.50;30.60;;;;;;10410515;28;20417;-69
2021/05/23 17:28:21;;;;;;;0.93;0.80;;;20.60;30.50;;;;;;10379523;28;20234;-69
2021/05/23 17:33:25;;;;;;;0.77;0.53;;;20.60;30.30;;;;;;10371657;28;20254;-69
2021/05/23 17:38:28;;;;;;;0.50;0.50;;;20.70;30.40;;;;;;10371616;28;20770;-69
2021/05/23 17:43:32;;;;;;;0.63;0.50;;;20.70;30.40;;;;;;10376284;28;20256;-70
2021/05/23 17:48:34;;;;;;;0.60;0.60;;;20.70;30.10;;;;;;10410883;28;20250;-70
2021/05/23 17:53:37;;;;;;;0.70;0.60;;;20.70;30.10;;;;;;10408975;28;20229;-69
2021/05/23 17:58:41;;;;;;;0.60;0.60;;;20.70;30.10;;;;;;10390337;28;20226;-69
2021/05/23 18:03:44;;;;;;;0.50;0.50;;;20.70;29.90;;;;;;10390097;28;20592;-69
2021/05/23 18:08:47;;;;;;;0.73;0.60;;;20.70;30.00;;;;;;10408188;28;20699;-67
2021/05/23 18:13:52;;;;;;;1.30;0.90;;;20.70;30.00;;;;;;10388946;28;20717;-67
2021/05/23 18:18:55;;;;;;;1.37;0.80;;;20.60;30.10;;;;;;10405963;28;20252;-67
2021/05/23 18:24:01;;;;;;;1.63;0.90;;;20.50;30.40;;;;;;10411206;28;20257;-67
2021/05/23 18:29:05;;;;;;;0.73;0.73;;;20.40;30.30;;;;;;10400155;28;20702;-67
2021/05/23 18:34:08;;;;;;;1.10;1.00;;;20.30;30.50;;;;;;10406892;28;20257;-67
2021/05/23 18:39:13;;;;;;;2.77;1.10;;;20.10;30.40;;;;;;10410129;28;20698;-67
2021/05/23 18:44:18;;;;;;;1.13;0.83;;;20.00;30.60;;;;;;10396577;28;20320;-67
2021/05/23 18:49:25;;;;;;;0.80;0.80;;;19.90;30.80;;;;;;10409968;28;20288;-69
2021/05/23 18:54:28;;;;;;;0.90;0.80;;;19.70;30.70;;;;;;10409702;28;20226;-69
2021/05/23 18:59:32;;;;;;;0.70;0.70;;;19.60;31.00;;;;;;10376296;28;20820;-69
2021/05/23 19:04:34;;;;;;;0.97;0.70;;;19.50;31.00;;;;;;10372089;28;20230;-69
2021/05/23 19:09:37;;;;;;;2.07;0.70;;;19.40;31.90;;;;;;10381564;28;20280;-69
2021/05/23 19:14:41;;;;;;;1.07;0.70;;;19.30;31.20;;;;;;10375447;28;20234;-70
2021/05/23 19:19:44;;;;;;;2.00;0.60;;;19.10;31.30;;;;;;10365986;28;20664;-69
2021/05/23 19:24:46;;;;;;;2.93;0.80;;;19.00;31.30;;;;;;10392666;28;20954;-69
2021/05/23 19:29:50;;;;;;;3.30;1.00;;;18.90;31.50;;;;;;10447997;28;20249;-67
2021/05/23 19:34:54;;;;;;;1.67;1.27;;;18.80;31.90;;;;;;10448654;28;20248;-69
2021/05/23 19:39:57;;;;;;;2.83;2.13;;;18.60;31.70;;;;;;10448777;28;20386;-69
2021/05/23 19:45:01;;;;;;;3.43;3.13;;;18.50;31.70;;;;;;10433697;28;20763;-70
2021/05/23 19:50:05;;;;;;;5.13;3.60;;;18.40;31.70;;;;;;10420105;28;20749;-70
2021/05/23 19:55:11;;;;;;;4.03;2.73;;;18.20;31.60;;;;;;10357983;28;20711;-71
2021/05/23 20:00:16;;;;;;;2.90;2.50;;;18.10;31.60;;;;;;10351120;28;20230;-71
2021/05/23 20:05:19;;;;;;;1.77;1.60;;;17.90;31.80;;;;;;10357552;28;20238;-71
2021/05/23 20:10:22;;;;;;;1.70;1.60;;;17.80;31.80;;;;;;10356224;28;20683;-71
2021/05/23 20:15:28;;;;;;;1.60;1.50;;;17.60;31.80;;;;;;10349229;28;20658;-70
2021/05/23 20:20:33;;;;;;;1.97;1.77;;;17.50;32.00;;;;;;10364527;28;20284;-70
2021/05/23 20:25:36;;;;;;;2.10;1.90;;;17.40;32.00;;;;;;10340159;28;20321;-69
2021/05/23 20:30:40;;;;;;;2.27;1.93;;;17.30;32.00;;;;;;10358044;28;20226;-69
2021/05/23 20:35:43;;;;;;;4.47;1.53;;;17.20;32.20;;;;;;10358874;28;20314;-70
2021/05/23 20:40:46;;;;;;;2.07;1.97;;;17.10;32.20;;;;;;10347703;28;20313;-69
2021/05/23 20:45:49;;;;;;;2.63;2.40;;;17.00;33.00;;;;;;10356876;28;20260;-70
2021/05/23 20:50:52;;;;;;;2.90;2.60;;;16.90;32.50;;;;;;10350318;28;20309;-70
2021/05/23 20:55:57;;;;;;;3.80;3.40;;;16.80;32.50;;;;;;10373479;28;20262;-69
2021/05/23 21:01:01;;;;;;;4.10;3.10;;;16.70;32.50;;;;;;10345671;28;20628;-69
2021/05/23 21:06:04;;;;;;;2.50;2.30;;;16.60;32.40;;;;;;10353607;28;20317;-69
2021/05/23 21:11:07;;;;;;;3.00;2.37;;;16.50;32.40;;;;;;10386685;28;20280;-69
2021/05/23 21:16:12;;;;;;;2.93;1.93;;;16.30;32.30;;;;;;10377467;28;20720;-69
2021/05/23 21:21:14;;;;;;;2.10;1.90;;;16.20;32.50;;;;;;10410079;28;20230;-69
2021/05/23 21:26:17;;;;;;;2.63;1.83;;;16.10;32.90;;;;;;10395086;28;20276;-70
2021/05/23 21:31:21;;;;;;;1.40;1.30;;;16.00;33.00;;;;;;10409669;28;20584;-69
2021/05/23 21:36:24;;;;;;;1.67;1.27;;;15.90;32.90;;;;;;10409319;28;20364;-69
2021/05/23 21:41:27;;;;;;;1.70;1.60;;;15.80;32.80;;;;;;10382628;28;20317;-69
2021/05/23 21:46:31;;;;;;;1.97;1.80;;;15.70;32.70;;;;;;10384733;28;20321;-70
2021/05/23 21:51:34;;;;;;;1.83;1.50;;;15.60;32.60;;;;;;10362281;28;20222;-69
2021/05/23 21:56:37;;;;;;;4.20;1.40;;;15.60;32.60;;;;;;10370479;28;20669;-69
2021/05/23 22:01:40;;;;;;;1.30;1.13;;;15.60;32.60;;;;;;10378315;28;20218;-69
2021/05/23 22:06:43;;;;;;;1.20;1.10;;;15.50;32.50;;;;;;10372770;28;20233;-69
2021/05/23 22:11:46;;;;;;;1.10;1.00;;;15.40;32.50;;;;;;10377927;28;20221;-69
2021/05/23 22:16:50;;;;;;;1.10;1.00;;;15.40;32.50;;;;;;10347262;28;20278;-69
2021/05/23 22:21:52;;;;;;;1.00;0.90;;;15.30;32.80;;;;;;10371076;28;20241;-69
2021/05/23 22:26:58;;;;;;;0.97;0.90;;;15.30;32.90;;;;;;10373675;28;20281;-69
2021/05/23 22:32:02;;;;;;;1.00;0.90;;;15.20;33.20;;;;;;10368794;28;20254;-69
2021/05/23 22:37:05;;;;;;;1.00;0.90;;;15.20;33.20;;;;;;10357889;28;20230;-69
2021/05/23 22:42:07;;;;;;;1.00;0.90;;;15.20;33.20;;;;;;10377620;28;20786;-69
2021/05/23 22:47:11;;;;;;;2.17;1.10;;;15.10;33.10;;;;;;10357016;28;20312;-69
2021/05/23 22:52:14;;;;;;;1.10;1.00;;;15.10;33.30;;;;;;10367038;28;20288;-69
2021/05/23 22:57:17;;;;;;;1.47;1.10;;;15.10;33.10;;;;;;10365695;28;20281;-69
2021/05/23 23:02:20;;;;;;;1.30;1.10;;;15.10;33.20;;;;;;10378759;28;20261;-69
2021/05/23 23:07:23;;;;;;;2.03;1.10;;;15.10;33.30;;;;;;10373498;28;20291;-69
2021/05/23 23:12:26;;;;;;;1.10;1.00;;;15.00;33.20;;;;;;10368785;28;20269;-69
2021/05/23 23:17:30;;;;;;;1.03;0.93;;;15.00;33.20;;;;;;10360593;28;20254;-69
2021/05/23 23:22:33;;;;;;;1.57;0.97;;;15.00;33.40;;;;;;10355976;28;20231;-69
2021/05/23 23:27:36;;;;;;;1.90;1.07;;;14.90;33.20;;;;;;10356156;28;20305;-69
2021/05/23 23:32:40;;;;;;;1.23;1.00;;;14.80;33.50;;;;;;10358384;28;20254;-69
2021/05/23 23:37:43;;;;;;;0.80;0.80;;;14.80;33.60;;;;;;10389040;28;20240;-69
2021/05/23 23:42:46;;;;;;;1.10;1.00;;;14.70;33.40;;;;;;10370360;28;20707;-69
2021/05/23 23:47:50;;;;;;;1.80;0.90;;;14.60;33.70;;;;;;10391902;28;20222;-69
2021/05/23 23:52:53;;;;;;;0.70;0.70;;;14.60;34.00;;;;;;10376523;28;20325;-69
2021/05/23 23:57:55;;;;;;;0.70;0.70;;;14.60;33.70;;;;;;10371692;28;20262;-69
